Bethalto, Illinois
Current Conditions -  °F | °C
As of 10:55 PM on Friday 28 Nov 2014 (Local Time) from KALN Reporting Station
Clear Clear  
Wind Chill: 34°   Ceiling: Unl
Heat Index: 40°   Visibility: 10mi
Dew Point: 33°   Wind: 9mph
Humidity: 75%   Direction: 170°S
Pressure: 29.91"   Gusts: NA
Location:  38.91°N, 90.04°W
Report Text: KALN 290455Z AUTO 17008KT 10SM CLR 05/01 A2991 RMK AO2 T00460006
Loading
Personal Weather Stations






























Interactive Weather Map New forecast layout! Learn more

10-Day Weather Forecast

Advertisements
Track Severe Weather on mobile